sensor_id;sensor_type;location;lat;lon;timestamp;P1;P2;P0
71794;PMS7003;59641;45.188;5.712;2023-03-23T00:01:19;5.25;4.00;3.00
71794;PMS7003;59641;45.188;5.712;2023-03-23T00:03:47;4.00;4.00;3.00
71794;PMS7003;59641;45.188;5.712;2023-03-23T00:06:15;6.40;5.00;4.00
71794;PMS7003;59641;45.188;5.712;2023-03-23T00:08:42;4.00;4.00;3.00
71794;PMS7003;59641;45.188;5.712;2023-03-23T00:11:10;4.80;4.80;3.00
71794;PMS7003;59641;45.188;5.712;2023-03-23T00:13:39;4.80;4.00;3.00
71794;PMS7003;59641;45.188;5.712;2023-03-23T00:16:06;7.20;5.80;4.00
71794;PMS7003;59641;45.188;5.712;2023-03-23T00:18:41;8.00;5.60;3.60
71794;PMS7003;59641;45.188;5.712;2023-03-23T00:21:09;4.80;4.80;3.60
71794;PMS7003;59641;45.188;5.712;2023-03-23T00:23:34;4.25;3.50;2.75
71794;PMS7003;59641;45.188;5.712;2023-03-23T00:26:00;5.00;5.00;3.50
71794;PMS7003;59641;45.188;5.712;2023-03-23T00:28:25;4.00;4.00;3.00
71794;PMS7003;59641;45.188;5.712;2023-03-23T00:31:02;3.40;3.40;3.00
71794;PMS7003;59641;45.188;5.712;2023-03-23T00:33:31;5.40;5.40;3.40
71794;PMS7003;59641;45.188;5.712;2023-03-23T00:36:03;7.00;5.80;4.40
71794;PMS7003;59641;45.188;5.712;2023-03-23T00:38:38;2.40;0.80;0.80
71794;PMS7003;59641;45.188;5.712;2023-03-23T00:41:05;4.00;4.00;4.00
71794;PMS7003;59641;45.188;5.712;2023-03-23T00:43:31;4.20;3.40;3.40
71794;PMS7003;59641;45.188;5.712;2023-03-23T00:46:00;3.00;2.80;1.60
71794;PMS7003;59641;45.188;5.712;2023-03-23T00:48:27;4.00;4.00;3.00
71794;PMS7003;59641;45.188;5.712;2023-03-23T00:50:54;5.40;5.40;4.00
71794;PMS7003;59641;45.188;5.712;2023-03-23T00:53:21;2.60;2.60;2.20
71794;PMS7003;59641;45.188;5.712;2023-03-23T00:55:48;3.40;3.40;2.40
71794;PMS7003;59641;45.188;5.712;2023-03-23T00:58:14;4.80;4.60;3.60
71794;PMS7003;59641;45.188;5.712;2023-03-23T01:00:41;3.60;3.00;3.00
71794;PMS7003;59641;45.188;5.712;2023-03-23T01:03:07;5.40;2.60;2.40
71794;PMS7003;59641;45.188;5.712;2023-03-23T01:05:37;4.00;4.00;3.00
71794;PMS7003;59641;45.188;5.712;2023-03-23T01:08:04;6.00;4.80;3.60
71794;PMS7003;59641;45.188;5.712;2023-03-23T01:10:30;4.00;4.00;3.00
71794;PMS7003;59641;45.188;5.712;2023-03-23T01:13:03;4.50;4.50;3.00
71794;PMS7003;59641;45.188;5.712;2023-03-23T01:15:29;7.00;5.25;3.75
71794;PMS7003;59641;45.188;5.712;2023-03-23T01:17:55;5.50;4.75;3.75
71794;PMS7003;59641;45.188;5.712;2023-03-23T01:20:21;5.00;3.40;2.80
71794;PMS7003;59641;45.188;5.712;2023-03-23T01:22:46;4.00;4.00;3.00
71794;PMS7003;59641;45.188;5.712;2023-03-23T01:25:12;4.00;4.00;3.00
71794;PMS7003;59641;45.188;5.712;2023-03-23T01:27:39;6.00;4.00;3.80
71794;PMS7003;59641;45.188;5.712;2023-03-23T01:30:06;4.00;4.00;3.00
71794;PMS7003;59641;45.188;5.712;2023-03-23T01:32:33;4.20;4.20;3.00
71794;PMS7003;59641;45.188;5.712;2023-03-23T01:35:00;5.00;5.00;4.00
71794;PMS7003;59641;45.188;5.712;2023-03-23T01:37:25;4.25;4.00;3.25
71794;PMS7003;59641;45.188;5.712;2023-03-23T01:39:57;3.50;3.50;2.50
71794;PMS7003;59641;45.188;5.712;2023-03-23T01:42:23;3.25;2.75;2.25
71794;PMS7003;59641;45.188;5.712;2023-03-23T01:47:15;4.50;4.50;4.00
71794;PMS7003;59641;45.188;5.712;2023-03-23T01:49:48;5.00;4.25;3.00
71794;PMS7003;59641;45.188;5.712;2023-03-23T01:52:16;4.00;4.00;3.00
71794;PMS7003;59641;45.188;5.712;2023-03-23T01:54:48;5.40;4.80;4.00
71794;PMS7003;59641;45.188;5.712;2023-03-23T01:57:16;6.00;5.00;4.00
71794;PMS7003;59641;45.188;5.712;2023-03-23T01:59:45;4.00;3.80;3.00
71794;PMS7003;59641;45.188;5.712;2023-03-23T02:02:14;5.60;5.60;4.00
71794;PMS7003;59641;45.188;5.712;2023-03-23T02:04:41;3.60;3.60;3.00
71794;PMS7003;59641;45.188;5.712;2023-03-23T02:07:07;3.00;3.00;2.60
71794;PMS7003;59641;45.188;5.712;2023-03-23T02:09:33;5.00;3.40;2.80
71794;PMS7003;59641;45.188;5.712;2023-03-23T02:11:59;4.20;4.20;3.60
71794;PMS7003;59641;45.188;5.712;2023-03-23T02:14:26;4.50;4.50;4.00
71794;PMS7003;59641;45.188;5.712;2023-03-23T02:16:59;4.40;4.00;3.00
71794;PMS7003;59641;45.188;5.712;2023-03-23T02:30:39;5.80;4.60;3.00
71794;PMS7003;59641;45.188;5.712;2023-03-23T02:35:57;4.40;4.40;4.00
71794;PMS7003;59641;45.188;5.712;2023-03-23T02:38:30;4.20;4.20;3.60
71794;PMS7003;59641;45.188;5.712;2023-03-23T02:41:01;3.00;3.00;3.00
71794;PMS7003;59641;45.188;5.712;2023-03-23T02:43:30;4.80;4.80;4.00
71794;PMS7003;59641;45.188;5.712;2023-03-23T02:46:00;6.60;5.00;4.00
71794;PMS7003;59641;45.188;5.712;2023-03-23T02:48:31;6.40;5.40;3.20
71794;PMS7003;59641;45.188;5.712;2023-03-23T02:50:58;1.25;1.25;1.00
71794;PMS7003;59641;45.188;5.712;2023-03-23T02:53:26;4.20;4.20;3.20
71794;PMS7003;59641;45.188;5.712;2023-03-23T02:55:54;2.40;2.40;2.20
71794;PMS7003;59641;45.188;5.712;2023-03-23T02:58:22;5.60;5.40;3.80
71794;PMS7003;59641;45.188;5.712;2023-03-23T03:00:50;3.00;3.00;2.00
71794;PMS7003;59641;45.188;5.712;2023-03-23T03:03:18;4.00;4.00;3.00
71794;PMS7003;59641;45.188;5.712;2023-03-23T03:08:26;5.00;4.40;3.00
71794;PMS7003;59641;45.188;5.712;2023-03-23T03:11:11;4.75;4.75;3.50
71794;PMS7003;59641;45.188;5.712;2023-03-23T03:13:46;4.20;4.20;3.00
71794;PMS7003;59641;45.188;5.712;2023-03-23T03:18:51;5.00;5.00;4.00
71794;PMS7003;59641;45.188;5.712;2023-03-23T03:21:25;4.80;4.40;3.00
71794;PMS7003;59641;45.188;5.712;2023-03-23T03:23:54;4.75;4.75;4.00
71794;PMS7003;59641;45.188;5.712;2023-03-23T03:26:25;6.20;5.60;4.20
71794;PMS7003;59641;45.188;5.712;2023-03-23T03:28:53;7.00;5.20;4.20
71794;PMS7003;59641;45.188;5.712;2023-03-23T03:31:20;4.00;4.00;3.00
71794;PMS7003;59641;45.188;5.712;2023-03-23T03:33:51;3.25;3.25;3.25
71794;PMS7003;59641;45.188;5.712;2023-03-23T03:36:18;3.50;3.25;2.50
71794;PMS7003;59641;45.188;5.712;2023-03-23T03:38:51;4.80;4.80;3.00
71794;PMS7003;59641;45.188;5.712;2023-03-23T03:41:17;5.50;5.50;4.00
71794;PMS7003;59641;45.188;5.712;2023-03-23T03:43:44;6.00;4.00;3.75
71794;PMS7003;59641;45.188;5.712;2023-03-23T03:46:09;3.75;3.75;3.00
71794;PMS7003;59641;45.188;5.712;2023-03-23T03:48:35;3.00;3.00;2.00
71794;PMS7003;59641;45.188;5.712;2023-03-23T03:51:00;4.50;4.50;2.75
71794;PMS7003;59641;45.188;5.712;2023-03-23T03:53:26;3.25;3.25;2.00
71794;PMS7003;59641;45.188;5.712;2023-03-23T03:55:52;5.40;4.80;3.40
71794;PMS7003;59641;45.188;5.712;2023-03-23T03:58:24;6.00;4.60;3.40
71794;PMS7003;59641;45.188;5.712;2023-03-23T04:00:50;3.50;3.50;3.00
71794;PMS7003;59641;45.188;5.712;2023-03-23T04:03:17;2.60;2.60;2.60
71794;PMS7003;59641;45.188;5.712;2023-03-23T04:05:43;4.75;4.75;4.00
71794;PMS7003;59641;45.188;5.712;2023-03-23T04:08:10;5.00;5.00;4.00
71794;PMS7003;59641;45.188;5.712;2023-03-23T04:10:36;3.60;3.60;2.80
71794;PMS7003;59641;45.188;5.712;2023-03-23T04:13:02;0.00;0.00;0.00
71794;PMS7003;59641;45.188;5.712;2023-03-23T04:15:29;4.80;4.80;4.00
71794;PMS7003;59641;45.188;5.712;2023-03-23T04:17:55;4.25;4.25;3.00
71794;PMS7003;59641;45.188;5.712;2023-03-23T04:20:21;6.40;5.20;3.60
71794;PMS7003;59641;45.188;5.712;2023-03-23T04:22:48;4.00;3.50;2.50
71794;PMS7003;59641;45.188;5.712;2023-03-23T04:25:14;4.75;4.75;3.75
71794;PMS7003;59641;45.188;5.712;2023-03-23T04:27:42;4.00;4.00;2.00
71794;PMS7003;59641;45.188;5.712;2023-03-23T04:30:11;6.00;6.00;3.00
71794;PMS7003;59641;45.188;5.712;2023-03-23T04:32:40;5.00;5.00;3.50
71794;PMS7003;59641;45.188;5.712;2023-03-23T04:35:07;4.60;4.00;3.00
71794;PMS7003;59641;45.188;5.712;2023-03-23T04:37:36;3.20;3.20;3.20
71794;PMS7003;59641;45.188;5.712;2023-03-23T04:40:02;5.00;4.50;3.00
71794;PMS7003;59641;45.188;5.712;2023-03-23T04:42:33;5.75;5.75;4.50
71794;PMS7003;59641;45.188;5.712;2023-03-23T04:44:58;4.50;3.25;3.00
71794;PMS7003;59641;45.188;5.712;2023-03-23T04:47:25;5.00;4.00;3.75
71794;PMS7003;59641;45.188;5.712;2023-03-23T04:49:55;4.00;4.00;3.00
71794;PMS7003;59641;45.188;5.712;2023-03-23T04:52:22;8.00;5.00;4.00
71794;PMS7003;59641;45.188;5.712;2023-03-23T04:54:50;4.60;4.60;4.00
71794;PMS7003;59641;45.188;5.712;2023-03-23T04:57:16;4.60;4.60;3.00
71794;PMS7003;59641;45.188;5.712;2023-03-23T04:59:42;6.00;5.25;3.25
71794;PMS7003;59641;45.188;5.712;2023-03-23T05:02:08;3.25;3.25;2.75
71794;PMS7003;59641;45.188;5.712;2023-03-23T05:04:35;5.00;4.00;3.80
71794;PMS7003;59641;45.188;5.712;2023-03-23T05:07:02;4.00;4.00;3.00
71794;PMS7003;59641;45.188;5.712;2023-03-23T05:09:28;3.00;2.00;2.00
71794;PMS7003;59641;45.188;5.712;2023-03-23T05:11:53;3.75;3.00;3.00
71794;PMS7003;59641;45.188;5.712;2023-03-23T05:14:18;3.50;3.00;3.00
71794;PMS7003;59641;45.188;5.712;2023-03-23T05:16:44;4.00;3.25;2.75
71794;PMS7003;59641;45.188;5.712;2023-03-23T05:19:13;5.00;4.40;3.20
71794;PMS7003;59641;45.188;5.712;2023-03-23T05:21:39;5.25;5.25;4.00
71794;PMS7003;59641;45.188;5.712;2023-03-23T05:24:05;6.75;5.00;3.75
71794;PMS7003;59641;45.188;5.712;2023-03-23T05:26:30;4.60;4.60;2.80
71794;PMS7003;59641;45.188;5.712;2023-03-23T05:28:57;3.00;3.00;2.75
71794;PMS7003;59641;45.188;5.712;2023-03-23T05:31:24;5.40;5.00;3.00
71794;PMS7003;59641;45.188;5.712;2023-03-23T05:33:50;3.00;3.00;3.00
71794;PMS7003;59641;45.188;5.712;2023-03-23T05:36:15;4.25;4.25;3.00
71794;PMS7003;59641;45.188;5.712;2023-03-23T05:38:41;3.25;3.00;3.00
71794;PMS7003;59641;45.188;5.712;2023-03-23T05:41:12;4.00;3.20;2.40
71794;PMS7003;59641;45.188;5.712;2023-03-23T05:43:38;5.25;5.00;2.75
71794;PMS7003;59641;45.188;5.712;2023-03-23T05:46:04;4.00;4.00;2.60
71794;PMS7003;59641;45.188;5.712;2023-03-23T05:48:30;4.00;3.00;2.50
71794;PMS7003;59641;45.188;5.712;2023-03-23T05:50:56;3.40;3.40;2.00
71794;PMS7003;59641;45.188;5.712;2023-03-23T05:53:21;4.00;4.00;3.00
71794;PMS7003;59641;45.188;5.712;2023-03-23T05:55:48;6.00;6.00;4.20
71794;PMS7003;59641;45.188;5.712;2023-03-23T05:58:13;5.75;4.25;3.25
71794;PMS7003;59641;45.188;5.712;2023-03-23T06:00:39;4.00;4.00;3.00
71794;PMS7003;59641;45.188;5.712;2023-03-23T06:03:04;4.50;4.00;3.00
71794;PMS7003;59641;45.188;5.712;2023-03-23T06:05:30;4.60;4.00;3.00
71794;PMS7003;59641;45.188;5.712;2023-03-23T06:07:57;4.20;3.60;3.00
71794;PMS7003;59641;45.188;5.712;2023-03-23T06:10:24;5.00;5.00;4.00
71794;PMS7003;59641;45.188;5.712;2023-03-23T06:12:50;5.20;5.20;4.00
71794;PMS7003;59641;45.188;5.712;2023-03-23T06:15:16;5.20;5.00;4.00
71794;PMS7003;59641;45.188;5.712;2023-03-23T06:17:43;4.25;3.75;3.00
71794;PMS7003;59641;45.188;5.712;2023-03-23T06:20:08;2.75;2.75;2.00
71794;PMS7003;59641;45.188;5.712;2023-03-23T06:22:36;4.20;4.20;3.00
71794;PMS7003;59641;45.188;5.712;2023-03-23T06:25:03;5.80;4.80;4.00
71794;PMS7003;59641;45.188;5.712;2023-03-23T06:27:32;5.00;5.00;4.00
71794;PMS7003;59641;45.188;5.712;2023-03-23T06:29:58;5.00;4.75;3.50
71794;PMS7003;59641;45.188;5.712;2023-03-23T06:32:24;4.00;4.00;3.00
71794;PMS7003;59641;45.188;5.712;2023-03-23T06:34:52;5.00;5.00;3.60
71794;PMS7003;59641;45.188;5.712;2023-03-23T06:37:18;6.00;6.00;4.75
71794;PMS7003;59641;45.188;5.712;2023-03-23T06:39:43;8.00;6.50;5.00
71794;PMS7003;59641;45.188;5.712;2023-03-23T06:42:09;6.25;5.00;3.25
71794;PMS7003;59641;45.188;5.712;2023-03-23T06:44:36;3.80;3.80;3.00
71794;PMS7003;59641;45.188;5.712;2023-03-23T06:47:01;4.25;4.25;3.00
71794;PMS7003;59641;45.188;5.712;2023-03-23T06:49:27;7.00;4.75;3.00
71794;PMS7003;59641;45.188;5.712;2023-03-23T06:51:52;3.50;3.00;2.00
71794;PMS7003;59641;45.188;5.712;2023-03-23T06:54:18;5.00;3.50;3.00
71794;PMS7003;59641;45.188;5.712;2023-03-23T06:56:43;5.00;5.00;4.00
71794;PMS7003;59641;45.188;5.712;2023-03-23T06:59:09;4.50;2.50;2.00
71794;PMS7003;59641;45.188;5.712;2023-03-23T07:01:35;5.20;5.20;3.20
71794;PMS7003;59641;45.188;5.712;2023-03-23T07:04:01;3.60;3.60;2.80
71794;PMS7003;59641;45.188;5.712;2023-03-23T07:06:26;4.75;4.00;3.00
71794;PMS7003;59641;45.188;5.712;2023-03-23T07:08:52;4.00;3.00;3.00
71794;PMS7003;59641;45.188;5.712;2023-03-23T07:11:18;3.00;3.00;3.00
71794;PMS7003;59641;45.188;5.712;2023-03-23T07:13:43;4.00;4.00;3.50
71794;PMS7003;59641;45.188;5.712;2023-03-23T07:16:10;2.80;2.80;2.00
71794;PMS7003;59641;45.188;5.712;2023-03-23T07:18:35;4.75;3.75;2.25
71794;PMS7003;59641;45.188;5.712;2023-03-23T07:21:01;3.25;3.25;3.00
71794;PMS7003;59641;45.188;5.712;2023-03-23T07:23:28;4.00;4.00;3.25
71794;PMS7003;59641;45.188;5.712;2023-03-23T07:25:54;5.00;5.00;2.40
71794;PMS7003;59641;45.188;5.712;2023-03-23T07:28:19;3.25;3.25;2.00
71794;PMS7003;59641;45.188;5.712;2023-03-23T07:30:45;2.25;1.00;1.00
71794;PMS7003;59641;45.188;5.712;2023-03-23T07:33:10;2.00;2.00;1.00
71794;PMS7003;59641;45.188;5.712;2023-03-23T07:35:36;3.25;3.00;2.25
71794;PMS7003;59641;45.188;5.712;2023-03-23T07:38:02;5.50;4.25;3.50
71794;PMS7003;59641;45.188;5.712;2023-03-23T07:40:29;7.00;7.00;4.00
71794;PMS7003;59641;45.188;5.712;2023-03-23T07:42:58;3.40;3.40;2.60
71794;PMS7003;59641;45.188;5.712;2023-03-23T07:45:25;5.60;4.60;3.60
71794;PMS7003;59641;45.188;5.712;2023-03-23T07:47:52;4.00;4.00;3.80
71794;PMS7003;59641;45.188;5.712;2023-03-23T07:50:18;4.50;4.50;2.75
71794;PMS7003;59641;45.188;5.712;2023-03-23T07:52:47;4.20;4.00;3.40
71794;PMS7003;59641;45.188;5.712;2023-03-23T07:55:12;3.25;3.25;2.25
71794;PMS7003;59641;45.188;5.712;2023-03-23T07:57:42;3.00;3.00;3.00
71794;PMS7003;59641;45.188;5.712;2023-03-23T08:00:12;5.00;4.60;3.20
71794;PMS7003;59641;45.188;5.712;2023-03-23T08:02:47;4.80;4.20;3.00
71794;PMS7003;59641;45.188;5.712;2023-03-23T08:05:14;5.80;5.20;3.40
71794;PMS7003;59641;45.188;5.712;2023-03-23T08:07:40;5.60;4.00;3.00
71794;PMS7003;59641;45.188;5.712;2023-03-23T08:10:07;4.40;4.40;3.80
71794;PMS7003;59641;45.188;5.712;2023-03-23T08:12:41;8.20;5.00;3.60
71794;PMS7003;59641;45.188;5.712;2023-03-23T08:15:08;5.60;4.80;3.60
71794;PMS7003;59641;45.188;5.712;2023-03-23T08:17:42;4.00;3.00;2.25
71794;PMS7003;59641;45.188;5.712;2023-03-23T08:20:08;5.75;4.75;3.75
71794;PMS7003;59641;45.188;5.712;2023-03-23T08:22:39;2.20;2.00;0.00
71794;PMS7003;59641;45.188;5.712;2023-03-23T08:25:06;4.50;4.50;3.75
71794;PMS7003;59641;45.188;5.712;2023-03-23T08:27:33;4.00;4.00;4.00
71794;PMS7003;59641;45.188;5.712;2023-03-23T08:29:59;4.00;4.00;3.25
71794;PMS7003;59641;45.188;5.712;2023-03-23T08:32:24;6.00;6.00;4.00
71794;PMS7003;59641;45.188;5.712;2023-03-23T08:34:51;5.60;4.80;3.80
71794;PMS7003;59641;45.188;5.712;2023-03-23T08:37:16;4.00;4.00;3.25
71794;PMS7003;59641;45.188;5.712;2023-03-23T08:39:42;6.25;5.00;3.75
71794;PMS7003;59641;45.188;5.712;2023-03-23T08:42:10;5.80;5.60;4.00
71794;PMS7003;59641;45.188;5.712;2023-03-23T08:44:36;5.75;5.75;4.00
71794;PMS7003;59641;45.188;5.712;2023-03-23T08:47:02;4.75;4.00;2.75
71794;PMS7003;59641;45.188;5.712;2023-03-23T08:49:29;7.40;4.80;4.20
71794;PMS7003;59641;45.188;5.712;2023-03-23T08:51:57;6.80;6.00;4.40
71794;PMS7003;59641;45.188;5.712;2023-03-23T08:54:23;7.00;7.00;4.00
71794;PMS7003;59641;45.188;5.712;2023-03-23T08:56:49;5.75;5.50;4.75
71794;PMS7003;59641;45.188;5.712;2023-03-23T08:59:14;7.75;6.25;5.25
71794;PMS7003;59641;45.188;5.712;2023-03-23T09:01:40;11.50;7.50;5.25
71794;PMS7003;59641;45.188;5.712;2023-03-23T09:04:06;10.25;9.00;6.00
71794;PMS7003;59641;45.188;5.712;2023-03-23T09:06:34;7.75;7.75;5.25
71794;PMS7003;59641;45.188;5.712;2023-03-23T09:09:01;7.80;6.40;4.80
71794;PMS7003;59641;45.188;5.712;2023-03-23T09:11:32;10.75;10.00;7.00
71794;PMS7003;59641;45.188;5.712;2023-03-23T09:14:02;7.00;7.00;4.00
71794;PMS7003;59641;45.188;5.712;2023-03-23T09:16:28;11.50;10.50;7.00
71794;PMS7003;59641;45.188;5.712;2023-03-23T09:18:54;11.50;9.50;7.00
71794;PMS7003;59641;45.188;5.712;2023-03-23T09:21:22;11.40;10.20;6.80
71794;PMS7003;59641;45.188;5.712;2023-03-23T09:23:48;9.25;9.25;6.25
71794;PMS7003;59641;45.188;5.712;2023-03-23T09:26:13;11.25;10.50;6.25
71794;PMS7003;59641;45.188;5.712;2023-03-23T09:28:39;14.25;12.25;7.75
71794;PMS7003;59641;45.188;5.712;2023-03-23T09:31:05;8.25;8.00;6.00
71794;PMS7003;59641;45.188;5.712;2023-03-23T09:33:30;9.75;9.75;8.50
71794;PMS7003;59641;45.188;5.712;2023-03-23T09:35:58;9.75;9.00;7.00
71794;PMS7003;59641;45.188;5.712;2023-03-23T09:38:24;9.75;9.75;6.75
71794;PMS7003;59641;45.188;5.712;2023-03-23T09:46:35;8.60;8.20;5.40
71794;PMS7003;59641;45.188;5.712;2023-03-23T09:49:23;9.20;8.60;6.20
71794;PMS7003;59641;45.188;5.712;2023-03-23T09:51:56;10.25;10.25;7.00
71794;PMS7003;59641;45.188;5.712;2023-03-23T09:54:27;10.00;10.00;7.00
71794;PMS7003;59641;45.188;5.712;2023-03-23T09:57:04;10.50;9.00;6.00
71794;PMS7003;59641;45.188;5.712;2023-03-23T10:02:11;10.25;9.50;7.50
71794;PMS7003;59641;45.188;5.712;2023-03-23T10:04:39;14.25;12.25;8.75
71794;PMS7003;59641;45.188;5.712;2023-03-23T10:07:17;12.25;12.25;9.50
71794;PMS7003;59641;45.188;5.712;2023-03-23T10:09:49;12.75;12.50;8.75
71794;PMS7003;59641;45.188;5.712;2023-03-23T10:13:00;10.00;9.60;7.60
71794;PMS7003;59641;45.188;5.712;2023-03-23T10:15:21;17.25;12.50;7.50
71794;PMS7003;59641;45.188;5.712;2023-03-23T10:17:57;10.75;8.75;5.00
71794;PMS7003;59641;45.188;5.712;2023-03-23T10:25:52;15.75;14.75;9.25
71794;PMS7003;59641;45.188;5.712;2023-03-23T10:28:44;13.75;13.75;10.75
71794;PMS7003;59641;45.188;5.712;2023-03-23T10:31:11;13.75;12.00;7.25
71794;PMS7003;59641;45.188;5.712;2023-03-23T10:33:47;14.25;14.25;9.00
71794;PMS7003;59641;45.188;5.712;2023-03-23T10:41:19;15.75;15.75;11.00
71794;PMS7003;59641;45.188;5.712;2023-03-23T10:43:46;20.25;19.75;10.75
71794;PMS7003;59641;45.188;5.712;2023-03-23T10:46:29;18.00;16.25;11.00
71794;PMS7003;59641;45.188;5.712;2023-03-23T10:49:08;21.50;19.50;12.75
71794;PMS7003;59641;45.188;5.712;2023-03-23T10:51:41;22.00;22.00;13.25
71794;PMS7003;59641;45.188;5.712;2023-03-23T10:54:09;22.25;19.25;12.00
71794;PMS7003;59641;45.188;5.712;2023-03-23T10:59:12;22.25;18.50;11.25
71794;PMS7003;59641;45.188;5.712;2023-03-23T11:01:38;18.75;16.25;12.00
71794;PMS7003;59641;45.188;5.712;2023-03-23T11:04:10;17.75;16.25;12.25
71794;PMS7003;59641;45.188;5.712;2023-03-23T11:06:37;19.50;18.50;11.75
71794;PMS7003;59641;45.188;5.712;2023-03-23T11:09:17;19.75;18.75;13.00
71794;PMS7003;59641;45.188;5.712;2023-03-23T11:11:57;22.25;18.50;12.00
71794;PMS7003;59641;45.188;5.712;2023-03-23T11:14:30;19.75;18.25;11.75
71794;PMS7003;59641;45.188;5.712;2023-03-23T11:17:03;16.25;16.25;11.25
71794;PMS7003;59641;45.188;5.712;2023-03-23T11:19:32;18.00;17.00;11.25
71794;PMS7003;59641;45.188;5.712;2023-03-23T11:24:33;12.50;12.50;9.00
71794;PMS7003;59641;45.188;5.712;2023-03-23T11:27:06;18.50;15.75;12.00
71794;PMS7003;59641;45.188;5.712;2023-03-23T11:29:33;18.75;18.25;11.25
71794;PMS7003;59641;45.188;5.712;2023-03-23T11:34:32;19.75;16.25;11.25
71794;PMS7003;59641;45.188;5.712;2023-03-23T11:39:53;21.50;18.00;13.00
71794;PMS7003;59641;45.188;5.712;2023-03-23T11:44:53;19.75;19.75;12.50
71794;PMS7003;59641;45.188;5.712;2023-03-23T11:47:24;19.50;18.75;12.00
71794;PMS7003;59641;45.188;5.712;2023-03-23T11:50:00;17.00;17.00;12.00
71794;PMS7003;59641;45.188;5.712;2023-03-23T11:57:55;20.50;17.75;11.50
71794;PMS7003;59641;45.188;5.712;2023-03-23T12:00:25;23.25;22.25;13.00
71794;PMS7003;59641;45.188;5.712;2023-03-23T12:11:19;17.75;17.50;11.50
71794;PMS7003;59641;45.188;5.712;2023-03-23T12:25:01;18.25;17.00;11.00
71794;PMS7003;59641;45.188;5.712;2023-03-23T12:38:59;22.00;19.75;12.50
71794;PMS7003;59641;45.188;5.712;2023-03-23T12:41:53;18.50;16.50;9.25
71794;PMS7003;59641;45.188;5.712;2023-03-23T12:44:37;19.75;19.75;12.50
71794;PMS7003;59641;45.188;5.712;2023-03-23T12:47:23;20.00;19.00;13.75
71794;PMS7003;59641;45.188;5.712;2023-03-23T12:53:04;20.00;17.00;12.00
71794;PMS7003;59641;45.188;5.712;2023-03-23T12:55:36;19.25;16.50;12.00
71794;PMS7003;59641;45.188;5.712;2023-03-23T12:58:20;18.75;17.50;12.50
71794;PMS7003;59641;45.188;5.712;2023-03-23T13:03:31;17.00;17.00;12.25
71794;PMS7003;59641;45.188;5.712;2023-03-23T13:06:07;18.00;16.75;11.00
71794;PMS7003;59641;45.188;5.712;2023-03-23T13:08:56;20.25;18.50;13.75
71794;PMS7003;59641;45.188;5.712;2023-03-23T13:11:32;19.50;15.50;10.00
71794;PMS7003;59641;45.188;5.712;2023-03-23T13:17:10;19.50;18.50;10.75
71794;PMS7003;59641;45.188;5.712;2023-03-23T13:22:25;16.00;13.00;9.50
71794;PMS7003;59641;45.188;5.712;2023-03-23T13:24:57;24.75;18.75;11.75
71794;PMS7003;59641;45.188;5.712;2023-03-23T13:27:26;17.25;16.00;11.75
71794;PMS7003;59641;45.188;5.712;2023-03-23T13:29:53;18.00;17.50;11.50
71794;PMS7003;59641;45.188;5.712;2023-03-23T13:32:20;17.00;16.50;12.00
71794;PMS7003;59641;45.188;5.712;2023-03-23T13:34:54;17.00;17.00;9.25
71794;PMS7003;59641;45.188;5.712;2023-03-23T13:37:20;19.50;17.75;11.00
71794;PMS7003;59641;45.188;5.712;2023-03-23T13:42:22;21.50;21.50;13.25
71794;PMS7003;59641;45.188;5.712;2023-03-23T13:49:48;20.50;18.00;13.25
71794;PMS7003;59641;45.188;5.712;2023-03-23T13:57:54;17.00;17.00;11.00
71794;PMS7003;59641;45.188;5.712;2023-03-23T14:02:51;14.75;14.25;10.00
71794;PMS7003;59641;45.188;5.712;2023-03-23T14:11:11;18.60;18.40;12.00
71794;PMS7003;59641;45.188;5.712;2023-03-23T14:13:20;18.50;18.25;13.25
71794;PMS7003;59641;45.188;5.712;2023-03-23T14:15:59;23.00;21.75;14.00
71794;PMS7003;59641;45.188;5.712;2023-03-23T14:18:38;23.00;20.25;13.25
71794;PMS7003;59641;45.188;5.712;2023-03-23T14:21:05;18.50;17.75;11.25
71794;PMS7003;59641;45.188;5.712;2023-03-23T14:23:38;18.75;16.75;11.00
71794;PMS7003;59641;45.188;5.712;2023-03-23T14:26:09;22.25;19.25;12.50
71794;PMS7003;59641;45.188;5.712;2023-03-23T14:28:41;12.75;12.75;9.75
71794;PMS7003;59641;45.188;5.712;2023-03-23T14:31:27;13.50;13.50;10.75
71794;PMS7003;59641;45.188;5.712;2023-03-23T14:33:54;23.75;20.00;13.75
71794;PMS7003;59641;45.188;5.712;2023-03-23T14:36:22;22.25;19.75;14.00
71794;PMS7003;59641;45.188;5.712;2023-03-23T14:39:01;15.00;14.25;10.00
71794;PMS7003;59641;45.188;5.712;2023-03-23T14:41:31;18.00;17.60;12.60
71794;PMS7003;59641;45.188;5.712;2023-03-23T14:43:59;16.00;16.00;9.00
71794;PMS7003;59641;45.188;5.712;2023-03-23T14:46:26;13.50;13.00;8.00
71794;PMS7003;59641;45.188;5.712;2023-03-23T14:48:54;14.00;13.50;10.00
71794;PMS7003;59641;45.188;5.712;2023-03-23T14:51:20;22.50;19.25;13.00
71794;PMS7003;59641;45.188;5.712;2023-03-23T14:53:46;21.25;21.25;13.00
71794;PMS7003;59641;45.188;5.712;2023-03-23T14:56:17;15.00;15.00;12.25
71794;PMS7003;59641;45.188;5.712;2023-03-23T14:58:45;15.75;15.75;10.75
71794;PMS7003;59641;45.188;5.712;2023-03-23T15:01:12;17.00;15.20;11.00
71794;PMS7003;59641;45.188;5.712;2023-03-23T15:03:51;15.00;14.00;10.00
71794;PMS7003;59641;45.188;5.712;2023-03-23T15:06:23;13.00;13.00;11.00
71794;PMS7003;59641;45.188;5.712;2023-03-23T15:08:54;14.75;14.00;10.00
71794;PMS7003;59641;45.188;5.712;2023-03-23T15:11:27;18.00;15.75;12.25
71794;PMS7003;59641;45.188;5.712;2023-03-23T15:13:56;20.25;19.50;13.00
71794;PMS7003;59641;45.188;5.712;2023-03-23T15:16:29;18.00;16.50;10.25
71794;PMS7003;59641;45.188;5.712;2023-03-23T15:18:58;15.00;14.00;10.00
71794;PMS7003;59641;45.188;5.712;2023-03-23T15:21:36;15.80;14.20;11.00
71794;PMS7003;59641;45.188;5.712;2023-03-23T15:24:24;14.00;14.00;9.20
71794;PMS7003;59641;45.188;5.712;2023-03-23T15:26:52;14.40;13.40;10.20
71794;PMS7003;59641;45.188;5.712;2023-03-23T15:29:20;15.00;15.00;12.00
71794;PMS7003;59641;45.188;5.712;2023-03-23T15:31:51;16.80;16.80;11.00
71794;PMS7003;59641;45.188;5.712;2023-03-23T15:34:20;14.00;13.80;9.60
71794;PMS7003;59641;45.188;5.712;2023-03-23T15:36:50;13.00;12.80;9.00
71794;PMS7003;59641;45.188;5.712;2023-03-23T15:39:19;13.00;13.00;9.00
71794;PMS7003;59641;45.188;5.712;2023-03-23T15:41:46;13.50;11.00;8.50
71794;PMS7003;59641;45.188;5.712;2023-03-23T15:44:20;13.20;12.80;9.60
71794;PMS7003;59641;45.188;5.712;2023-03-23T15:46:52;14.25;13.50;11.00
71794;PMS7003;59641;45.188;5.712;2023-03-23T15:49:19;12.50;11.50;9.00
71794;PMS7003;59641;45.188;5.712;2023-03-23T15:51:47;12.80;12.80;9.00
71794;PMS7003;59641;45.188;5.712;2023-03-23T15:54:14;12.00;12.00;10.25
71794;PMS7003;59641;45.188;5.712;2023-03-23T15:56:41;15.00;13.00;8.75
71794;PMS7003;59641;45.188;5.712;2023-03-23T15:59:08;14.25;14.00;10.00
71794;PMS7003;59641;45.188;5.712;2023-03-23T16:01:34;14.40;14.40;10.00
71794;PMS7003;59641;45.188;5.712;2023-03-23T16:04:06;15.40;13.60;10.00
71794;PMS7003;59641;45.188;5.712;2023-03-23T16:06:34;14.00;12.00;9.00
71794;PMS7003;59641;45.188;5.712;2023-03-23T16:09:01;19.00;17.00;11.75
71794;PMS7003;59641;45.188;5.712;2023-03-23T16:11:29;25.50;25.50;19.00
71794;PMS7003;59641;45.188;5.712;2023-03-23T16:13:56;29.25;26.00;19.00
71794;PMS7003;59641;45.188;5.712;2023-03-23T16:16:41;20.50;18.00;14.00
71794;PMS7003;59641;45.188;5.712;2023-03-23T16:19:17;15.50;14.25;8.00
71794;PMS7003;59641;45.188;5.712;2023-03-23T16:21:44;18.50;18.00;14.00
71794;PMS7003;59641;45.188;5.712;2023-03-23T16:24:09;21.50;19.25;17.00